createdAt,value
2023-03-11T00:00:30.712Z,10.04
2023-03-11T00:03:33.589Z,9.92
2023-03-11T00:06:36.221Z,9.97
2023-03-11T00:09:39.202Z,9.93
2023-03-11T00:12:41.816Z,9.92
2023-03-11T00:15:47.360Z,9.98
2023-03-11T00:18:51.272Z,9.91
2023-03-11T00:21:54.328Z,9.85
2023-03-11T00:24:56.957Z,9.88
2023-03-11T00:28:00.589Z,9.94
2023-03-11T00:31:04.083Z,9.99
2023-03-11T00:34:07.146Z,9.83
2023-03-11T00:37:09.688Z,9.97
2023-03-11T00:40:18.785Z,9.93
2023-03-11T00:43:21.341Z,9.93
2023-03-11T00:46:24.497Z,9.89
2023-03-11T00:49:27.128Z,9.87
2023-03-11T00:52:30.088Z,9.91
2023-03-11T00:55:34.627Z,9.93
2023-03-11T00:58:38.247Z,9.99
2023-03-11T01:01:41.074Z,10.00
2023-03-11T01:04:44.056Z,10.13
2023-03-11T01:07:47.564Z,9.94
2023-03-11T01:10:50.621Z,10.01
2023-03-11T01:13:53.932Z,10.16
2023-03-11T01:16:57.141Z,10.13
2023-03-11T01:19:59.693Z,10.10
2023-03-11T01:23:02.709Z,10.15
2023-03-11T01:26:05.323Z,10.00
2023-03-11T01:29:08.263Z,10.09
2023-03-11T01:32:12.346Z,9.97
2023-03-11T01:35:18.334Z,9.92
2023-03-11T01:38:22.245Z,9.87
2023-03-11T01:41:25.039Z,9.91
2023-03-11T01:44:27.900Z,9.80
2023-03-11T01:47:37.746Z,9.86
2023-03-11T01:50:45.829Z,9.89
2023-03-11T01:53:49.226Z,9.73
2023-03-11T01:56:52.656Z,9.74
2023-03-11T01:59:57.872Z,9.73
2023-03-11T02:03:04.504Z,9.75
2023-03-11T02:06:11.651Z,9.59
2023-03-11T02:09:14.506Z,9.64
2023-03-11T02:12:17.501Z,9.64
2023-03-11T02:15:20.154Z,9.52
2023-03-11T02:18:23.529Z,9.63
2023-03-11T02:21:29.695Z,9.60
2023-03-11T02:24:45.614Z,9.40
2023-03-11T02:27:50.160Z,9.52
2023-03-11T02:30:53.796Z,9.46
2023-03-11T02:33:59.591Z,9.43
2023-03-11T02:37:08.397Z,9.40
2023-03-11T02:40:34.093Z,9.36
2023-03-11T02:43:42.384Z,9.38
2023-03-11T02:46:45.691Z,9.49
2023-03-11T02:49:49.080Z,9.53
2023-03-11T02:52:52.158Z,9.38
2023-03-11T02:55:55.176Z,9.41
2023-03-11T02:58:57.809Z,9.45
2023-03-11T03:02:00.683Z,9.45
2023-03-11T03:05:04.104Z,9.42
2023-03-11T03:08:07.105Z,9.46
2023-03-11T03:11:09.740Z,9.41
2023-03-11T03:14:12.861Z,9.42
2023-03-11T03:17:16.303Z,9.39
2023-03-11T03:20:20.766Z,9.35
2023-03-11T03:23:24.050Z,9.47
2023-03-11T03:26:27.136Z,9.52
2023-03-11T03:29:30.873Z,9.59
2023-03-11T03:32:34.372Z,9.60
2023-03-11T03:35:43.515Z,9.39
2023-03-11T03:38:48.465Z,9.43
2023-03-11T03:41:52.015Z,9.32
2023-03-11T03:44:56.123Z,9.48
2023-03-11T03:47:58.974Z,9.38
2023-03-11T03:51:05.065Z,9.37
2023-03-11T03:54:08.410Z,9.38
2023-03-11T03:57:11.504Z,9.27
2023-03-11T04:00:15.885Z,9.30
2023-03-11T04:03:20.200Z,9.22
2023-03-11T04:06:26.115Z,9.10
2023-03-11T04:09:29.555Z,9.12
2023-03-11T04:12:32.310Z,9.15
2023-03-11T04:15:38.365Z,9.07
2023-03-11T04:18:41.572Z,8.98
2023-03-11T04:21:44.580Z,8.97
2023-03-11T04:24:47.794Z,8.89
2023-03-11T04:27:52.355Z,8.78
2023-03-11T04:30:55.463Z,8.71
2023-03-11T04:33:58.722Z,8.64
2023-03-11T04:37:01.788Z,8.73
2023-03-11T04:40:06.951Z,8.66
2023-03-11T04:43:10.013Z,8.69
2023-03-11T04:46:13.264Z,8.48
2023-03-11T04:49:16.749Z,8.54
2023-03-11T04:52:20.021Z,8.39
2023-03-11T04:55:23.174Z,8.37
2023-03-11T04:58:26.425Z,8.31
2023-03-11T05:01:29.264Z,8.34
2023-03-11T05:04:33.134Z,8.33
2023-03-11T05:07:36.963Z,8.18
2023-03-11T05:10:41.966Z,8.09
2023-03-11T05:13:45.332Z,7.99
2023-03-11T05:16:48.907Z,7.94
2023-03-11T05:19:54.158Z,7.84
2023-03-11T05:22:58.435Z,7.74
2023-03-11T05:26:01.445Z,7.80
2023-03-11T05:29:05.141Z,7.73
2023-03-11T05:32:08.156Z,7.78
2023-03-11T05:35:11.227Z,7.50
2023-03-11T05:38:14.767Z,7.33
2023-03-11T05:41:18.877Z,7.25
2023-03-11T05:44:21.676Z,7.19
2023-03-11T05:47:25.400Z,7.13
2023-03-11T05:50:28.625Z,7.00
2023-03-11T05:53:31.641Z,6.95
2023-03-11T05:56:34.311Z,6.98
2023-03-11T05:59:38.360Z,6.81
2023-03-11T06:02:41.679Z,6.69
2023-03-11T06:05:49.760Z,6.54
2023-03-11T06:08:54.865Z,6.52
2023-03-11T06:11:58.662Z,6.39
2023-03-11T06:15:02.562Z,6.42
2023-03-11T06:18:05.689Z,6.41
2023-03-11T06:21:11.676Z,6.40
2023-03-11T06:24:14.724Z,6.26
2023-03-11T06:27:18.424Z,6.30
2023-03-11T06:30:21.701Z,6.32
2023-03-11T06:33:25.073Z,6.23
2023-03-11T06:36:28.046Z,6.33
2023-03-11T06:39:30.583Z,6.26
2023-03-11T06:42:34.279Z,6.31
2023-03-11T06:45:37.418Z,6.27
2023-03-11T06:48:40.846Z,6.24
2023-03-11T06:51:44.417Z,6.23
2023-03-11T06:54:49.913Z,6.25
2023-03-11T06:57:53.045Z,6.27
2023-03-11T07:01:04.015Z,6.28
2023-03-11T07:04:07.264Z,6.26
2023-03-11T07:07:10.628Z,6.32
2023-03-11T07:10:13.452Z,6.23
2023-03-11T07:25:59.566Z,6.94
2023-03-11T07:29:03.148Z,6.94
2023-03-11T07:32:07.752Z,6.52
2023-03-11T07:35:52.439Z,6.40
2023-03-11T07:39:17.705Z,6.55
2023-03-11T07:42:31.379Z,6.48
2023-03-11T07:45:35.868Z,6.51
2023-03-11T07:48:40.397Z,6.62
2023-03-11T07:51:44.098Z,6.77
2023-03-11T07:54:47.523Z,6.90
2023-03-11T07:58:31.207Z,7.00
2023-03-11T08:01:36.674Z,7.04
2023-03-11T08:04:40.730Z,7.00
2023-03-11T08:07:43.296Z,6.98
2023-03-11T08:10:46.321Z,6.99
2023-03-11T08:13:49.471Z,6.78
2023-03-11T08:16:55.804Z,6.65
2023-03-11T08:19:58.498Z,6.68
2023-03-11T08:23:01.790Z,6.64
2023-03-11T08:26:05.603Z,6.87
2023-03-11T08:29:09.144Z,6.82
2023-03-11T08:32:20.394Z,6.86
2023-03-11T08:35:23.789Z,6.75
2023-03-11T08:38:30.212Z,6.78
2023-03-11T08:41:56.095Z,6.83
2023-03-11T08:44:58.877Z,6.99
2023-03-11T08:48:04.680Z,7.15
2023-03-11T08:51:12.026Z,7.19
2023-03-11T08:54:15.156Z,7.31
2023-03-11T08:57:18.165Z,7.26
2023-03-11T09:00:41.346Z,7.37
2023-03-11T09:03:44.252Z,7.50
2023-03-11T09:06:49.035Z,7.55
2023-03-11T09:09:51.753Z,7.72
2023-03-11T09:12:54.673Z,7.82
2023-03-11T09:15:57.829Z,7.86
2023-03-11T09:19:03.958Z,7.79
2023-03-11T09:22:07.044Z,7.64
2023-03-11T09:25:12.730Z,7.72
2023-03-11T09:28:16.667Z,7.68
2023-03-11T09:31:36.651Z,7.79
2023-03-11T09:34:39.400Z,8.15
2023-03-11T09:37:42.201Z,8.12
2023-03-11T09:41:24.232Z,8.11
2023-03-11T09:44:36.639Z,7.46
2023-03-11T09:48:12.311Z,7.22
2023-03-11T09:51:22.343Z,7.00
2023-03-11T09:54:29.037Z,6.81
2023-03-11T09:57:34.068Z,6.74
2023-03-11T10:00:36.738Z,6.58
2023-03-11T10:03:40.308Z,6.58
2023-03-11T10:06:45.542Z,6.43
2023-03-11T10:09:56.927Z,6.35
2023-03-11T10:13:13.579Z,6.32
2023-03-11T10:16:38.587Z,6.43
2023-03-11T10:20:14.821Z,6.33
2023-03-11T10:23:36.893Z,6.21
2023-03-11T10:26:43.724Z,6.23
2023-03-11T10:29:53.525Z,6.09
2023-03-11T10:33:29.656Z,6.15
2023-03-11T10:36:39.788Z,6.15
2023-03-11T10:39:43.020Z,6.11
2023-03-11T10:42:47.111Z,5.99
2023-03-11T10:45:51.313Z,6.09
2023-03-11T10:48:56.694Z,6.13
2023-03-11T10:51:59.754Z,6.09
2023-03-11T10:55:03.425Z,6.13
2023-03-11T10:58:12.852Z,6.30
2023-03-11T11:01:18.223Z,6.45
2023-03-11T11:04:30.286Z,6.63
2023-03-11T11:07:41.191Z,6.64
2023-03-11T11:10:55.380Z,6.82
2023-03-11T11:14:00.669Z,6.67
2023-03-11T11:17:04.183Z,6.67
2023-03-11T11:20:17.340Z,6.62
2023-03-11T11:23:42.712Z,6.71
2023-03-11T11:27:04.455Z,6.85
2023-03-11T11:30:11.226Z,7.09
2023-03-11T11:33:30.793Z,7.20
2023-03-11T11:36:36.179Z,7.09
2023-03-11T11:39:59.905Z,7.04
2023-03-11T11:43:10.158Z,7.12
2023-03-11T11:46:22.070Z,6.97
2023-03-11T11:49:28.754Z,6.80
2023-03-11T11:52:38.034Z,6.77
2023-03-11T11:56:25.640Z,7.00
2023-03-11T11:59:53.578Z,7.13
2023-03-11T12:03:07.666Z,6.90
2023-03-11T12:06:36.235Z,7.06
2023-03-11T12:10:23.355Z,6.92
2023-03-11T12:13:35.857Z,6.92
2023-03-11T12:16:57.030Z,6.68
2023-03-11T12:20:09.405Z,6.73
2023-03-11T12:23:31.169Z,6.72
2023-03-11T12:26:37.388Z,6.55
2023-03-11T12:30:29.825Z,6.52
2023-03-11T12:33:35.595Z,6.71
2023-03-11T12:36:43.950Z,6.74
2023-03-11T12:39:48.039Z,6.82
2023-03-11T12:43:32.678Z,6.78
2023-03-11T12:46:57.729Z,6.72
2023-03-11T12:50:39.616Z,6.70
2023-03-11T12:53:48.060Z,6.78
2023-03-11T12:57:00.527Z,7.04
2023-03-11T13:00:07.623Z,7.09
2023-03-11T13:03:29.714Z,7.02
2023-03-11T13:06:51.461Z,6.91
2023-03-11T13:10:16.010Z,6.94
2023-03-11T13:13:23.555Z,6.93
2023-03-11T13:16:26.345Z,6.92
2023-03-11T13:19:32.198Z,6.85
2023-03-11T13:22:57.713Z,6.93
2023-03-11T13:26:25.903Z,6.89
2023-03-11T13:30:08.053Z,6.82
2023-03-11T13:33:25.901Z,6.74
2023-03-11T13:36:57.231Z,6.71
2023-03-11T13:40:17.001Z,6.52
2023-03-11T13:43:25.440Z,6.63
2023-03-11T14:00:40.598Z,7.27
2023-03-11T14:04:37.565Z,7.27
2023-03-11T14:07:42.095Z,6.65
2023-03-11T14:10:55.144Z,6.80
2023-03-11T14:13:58.398Z,6.82
2023-03-11T14:17:04.111Z,6.87
2023-03-11T14:20:16.430Z,6.81
2023-03-11T14:23:28.457Z,6.80
2023-03-11T14:26:35.074Z,6.71
2023-03-11T14:29:41.052Z,6.65
2023-03-11T14:32:58.124Z,6.52
2023-03-11T14:36:58.385Z,6.48
2023-03-11T14:40:31.217Z,6.42
2023-03-11T14:43:39.748Z,6.37
2023-03-11T14:46:45.294Z,6.38
2023-03-11T14:49:51.446Z,6.28
2023-03-11T14:53:09.320Z,6.35
2023-03-11T14:56:19.160Z,6.42
2023-03-11T14:59:29.999Z,6.57
2023-03-11T15:02:44.753Z,6.58
2023-03-11T15:06:00.427Z,6.58
2023-03-11T15:09:13.697Z,6.53
2023-03-11T15:12:35.063Z,6.41
2023-03-11T15:15:38.363Z,6.47
2023-03-11T15:18:42.655Z,6.55
2023-03-11T15:21:46.679Z,6.40
2023-03-11T15:24:52.005Z,6.39
2023-03-11T15:27:54.996Z,6.43
2023-03-11T15:31:16.850Z,6.36
2023-03-11T15:34:26.325Z,6.27
2023-03-11T15:37:28.837Z,6.22
2023-03-11T15:40:45.537Z,6.16
2023-03-11T15:47:19.376Z,6.04
2023-03-11T15:50:40.065Z,5.94
2023-03-11T15:53:50.443Z,5.90
2023-03-11T15:56:55.321Z,5.80
2023-03-11T16:00:01.067Z,5.77
2023-03-11T16:03:10.253Z,5.81
2023-03-11T16:06:13.185Z,5.79
2023-03-11T16:09:16.507Z,5.72
2023-03-11T16:12:23.421Z,5.76
2023-03-11T16:15:29.412Z,5.86
2023-03-11T16:18:37.502Z,5.94
2023-03-11T16:21:42.822Z,5.73
2023-03-11T16:24:51.229Z,5.73
2023-03-11T16:27:57.524Z,5.72
2023-03-11T16:31:00.486Z,5.77
2023-03-11T16:34:03.330Z,5.60
2023-03-11T16:37:07.290Z,5.56
2023-03-11T16:40:16.362Z,5.55
2023-03-11T16:43:19.221Z,5.55
2023-03-11T16:46:21.934Z,5.52
2023-03-11T16:49:24.861Z,5.61
2023-03-11T16:52:27.721Z,5.59
2023-03-11T16:55:31.018Z,5.43
2023-03-11T16:58:33.701Z,5.37
2023-03-11T17:01:38.639Z,5.40
2023-03-11T17:04:41.597Z,5.40
2023-03-11T17:07:44.591Z,5.42
2023-03-11T17:10:47.238Z,5.36
2023-03-11T17:13:50.989Z,5.29
2023-03-11T17:16:53.545Z,5.21
2023-03-11T17:19:56.601Z,5.21
2023-03-11T17:23:00.485Z,5.35
2023-03-11T17:26:10.772Z,5.02
2023-03-11T17:29:13.567Z,5.04
2023-03-11T17:32:17.591Z,5.12
2023-03-11T17:35:20.435Z,5.09
2023-03-11T17:38:23.598Z,5.06
2023-03-11T17:41:26.423Z,4.95
2023-03-11T17:44:37.905Z,5.01
2023-03-11T17:47:47.593Z,5.00
2023-03-11T17:50:50.729Z,5.06
2023-03-11T17:53:55.102Z,5.11
2023-03-11T17:56:58.327Z,5.10
2023-03-11T18:00:05.665Z,5.20
2023-03-11T18:03:09.845Z,5.14
2023-03-11T18:06:13.014Z,5.03
2023-03-11T18:09:17.131Z,5.03
2023-03-11T18:12:20.748Z,5.12
2023-03-11T18:15:24.477Z,5.03
2023-03-11T18:18:28.024Z,4.92
2023-03-11T18:21:31.368Z,4.82
2023-03-11T18:24:34.162Z,4.81
2023-03-11T18:27:38.306Z,4.84
2023-03-11T18:30:41.161Z,4.79
2023-03-11T18:33:54.895Z,4.85
2023-03-11T18:36:57.726Z,4.67
2023-03-11T18:40:00.682Z,4.73
2023-03-11T18:43:03.747Z,4.68
2023-03-11T18:46:09.250Z,4.72
2023-03-11T18:49:13.330Z,4.64
2023-03-11T18:52:16.809Z,4.62
2023-03-11T18:55:19.865Z,4.57
2023-03-11T18:58:23.175Z,4.56
2023-03-11T19:01:28.313Z,4.61
2023-03-11T19:04:33.109Z,4.40
2023-03-11T19:07:38.819Z,4.38
2023-03-11T19:10:45.309Z,4.45
2023-03-11T19:13:48.392Z,4.35
2023-03-11T19:16:51.702Z,4.43
2023-03-11T19:19:55.103Z,4.42
2023-03-11T19:22:58.191Z,4.38
2023-03-11T19:26:03.353Z,4.37
2023-03-11T19:29:07.900Z,4.44
2023-03-11T19:32:10.699Z,4.31
2023-03-11T19:35:14.798Z,4.20
2023-03-11T19:38:17.641Z,4.30
2023-03-11T19:41:20.931Z,4.25
2023-03-11T19:44:23.661Z,4.18
2023-03-11T19:47:26.811Z,3.93
2023-03-11T19:50:29.855Z,4.08
2023-03-11T19:53:33.972Z,4.06
2023-03-11T19:56:37.261Z,4.13
2023-03-11T20:00:23.494Z,3.98
2023-03-11T20:03:27.527Z,3.97
2023-03-11T20:06:30.580Z,3.87
2023-03-11T20:09:35.098Z,3.94
2023-03-11T20:12:41.378Z,3.81
2023-03-11T20:15:48.881Z,3.75
2023-03-11T20:18:51.765Z,3.64
2023-03-11T20:21:54.676Z,3.58
2023-03-11T20:24:57.464Z,3.51
2023-03-11T20:28:01.377Z,3.54
2023-03-11T20:31:14.160Z,3.49
2023-03-11T20:34:17.588Z,3.36
2023-03-11T20:37:20.456Z,3.31
2023-03-11T20:40:24.231Z,3.27
2023-03-11T20:43:27.081Z,3.31
2023-03-11T20:46:31.309Z,3.16
2023-03-11T20:49:34.672Z,3.17
2023-03-11T20:52:39.896Z,3.07
2023-03-11T20:55:50.040Z,3.12
2023-03-11T20:58:55.954Z,3.13
2023-03-11T21:01:58.690Z,3.08
2023-03-11T21:05:01.894Z,3.04
2023-03-11T21:08:05.168Z,3.08
2023-03-11T21:11:08.461Z,2.93
2023-03-11T21:14:15.206Z,3.00
2023-03-11T21:17:18.407Z,2.95
2023-03-11T21:20:21.973Z,2.86
2023-03-11T21:23:26.867Z,2.90
2023-03-11T21:26:29.622Z,2.84
2023-03-11T21:29:35.767Z,2.78
2023-03-11T21:32:41.076Z,2.90
2023-03-11T21:35:58.690Z,2.82
2023-03-11T21:39:07.239Z,2.74
2023-03-11T21:42:10.291Z,2.79
2023-03-11T21:45:13.546Z,2.79
2023-03-11T21:48:16.515Z,2.70
2023-03-11T21:51:20.242Z,2.78
2023-03-11T21:54:23.417Z,2.72
2023-03-11T21:57:36.763Z,2.76
2023-03-11T22:00:48.822Z,2.76
2023-03-11T22:03:53.601Z,2.59
2023-03-11T22:06:57.427Z,2.66
2023-03-11T22:10:02.066Z,2.65
2023-03-11T22:13:22.588Z,2.55
2023-03-11T22:16:26.723Z,2.70
2023-03-11T22:19:29.675Z,2.74
2023-03-11T22:22:33.298Z,2.69
2023-03-11T22:25:37.405Z,2.59
2023-03-11T22:28:43.656Z,2.54
2023-03-11T22:31:54.252Z,2.67
2023-03-11T22:34:57.646Z,2.64
2023-03-11T22:38:00.231Z,2.59
2023-03-11T22:41:05.864Z,2.59
2023-03-11T22:44:08.705Z,2.56
2023-03-11T22:47:13.907Z,2.59
2023-03-11T22:50:21.087Z,2.57
2023-03-11T22:53:25.454Z,2.61
2023-03-11T22:56:28.040Z,2.64
2023-03-11T22:59:31.622Z,2.52
2023-03-11T23:02:34.474Z,2.58
2023-03-11T23:05:42.241Z,2.52
2023-03-11T23:08:45.514Z,2.48
2023-03-11T23:11:50.157Z,2.58
2023-03-11T23:14:52.701Z,2.51
2023-03-11T23:17:55.592Z,2.58
2023-03-11T23:20:58.216Z,2.34
2023-03-11T23:24:02.922Z,2.42
2023-03-11T23:27:05.505Z,2.44
2023-03-11T23:30:10.757Z,2.43
2023-03-11T23:33:13.671Z,2.32
2023-03-11T23:36:21.003Z,2.41
2023-03-11T23:39:32.026Z,2.42
2023-03-11T23:43:16.086Z,2.46
2023-03-11T23:46:20.434Z,2.23
2023-03-11T23:49:23.346Z,2.44
2023-03-11T23:52:26.375Z,2.41
2023-03-11T23:55:29.429Z,2.44
2023-03-11T23:58:33.054Z,2.47
